createdAt,value
2018-11-05T00:02:19.867Z,8.90
2018-11-05T00:04:46.792Z,9.53
2018-11-05T00:07:13.759Z,9.67
2018-11-05T00:09:40.771Z,9.47
2018-11-05T00:12:07.755Z,10.27
2018-11-05T00:14:34.777Z,9.17
2018-11-05T00:17:01.734Z,10.37
2018-11-05T00:19:28.671Z,10.20
2018-11-05T00:21:55.657Z,10.17
2018-11-05T00:24:22.573Z,9.90
2018-11-05T00:26:49.502Z,10.33
2018-11-05T00:29:16.463Z,10.70
2018-11-05T00:31:43.741Z,11.07
2018-11-05T00:34:10.662Z,9.40
2018-11-05T00:36:37.603Z,10.20
2018-11-05T00:39:06.956Z,10.23
2018-11-05T00:41:33.907Z,10.40
2018-11-05T00:44:00.831Z,9.60
2018-11-05T00:46:27.797Z,9.23
2018-11-05T00:48:54.720Z,9.97
2018-11-05T00:51:21.657Z,9.23
2018-11-05T00:53:48.582Z,9.03
2018-11-05T00:56:15.514Z,8.80
2018-11-05T00:58:42.521Z,9.77
2018-11-05T01:01:09.471Z,9.90
2018-11-05T01:03:36.406Z,9.63
2018-11-05T01:06:03.453Z,9.87
2018-11-05T01:08:30.374Z,9.80
2018-11-05T01:10:57.314Z,9.13
2018-11-05T01:13:24.270Z,9.60
2018-11-05T01:15:51.210Z,9.07
2018-11-05T01:18:18.155Z,8.93
2018-11-05T01:20:45.161Z,9.40
2018-11-05T01:23:12.078Z,9.57
2018-11-05T01:25:39.018Z,9.30
2018-11-05T01:28:05.970Z,8.40
2018-11-05T01:30:32.906Z,9.07
2018-11-05T01:33:00.389Z,9.67
2018-11-05T01:35:27.350Z,8.73
2018-11-05T01:37:54.274Z,9.27
2018-11-05T01:40:21.214Z,8.90
2018-11-05T01:42:48.166Z,9.27
2018-11-05T01:45:15.149Z,8.90
2018-11-05T01:47:42.505Z,8.80
2018-11-05T01:50:11.418Z,9.40
2018-11-05T01:52:38.367Z,8.80
2018-11-05T01:55:05.662Z,8.67
2018-11-05T01:57:32.621Z,8.97
2018-11-05T01:59:59.569Z,8.83
2018-11-05T02:02:26.549Z,9.13
2018-11-05T02:04:53.510Z,8.40
2018-11-05T02:07:20.545Z,8.83
2018-11-05T02:09:47.489Z,8.93
2018-11-05T02:12:14.451Z,9.13
2018-11-05T02:14:41.388Z,8.67
2018-11-05T02:17:08.377Z,9.53
2018-11-05T02:19:35.356Z,8.57
2018-11-05T02:22:02.309Z,8.30
2018-11-05T02:24:29.249Z,8.87
2018-11-05T02:26:56.253Z,8.93
2018-11-05T02:29:23.141Z,7.80
2018-11-05T02:31:50.097Z,7.87
2018-11-05T02:34:17.374Z,8.27
2018-11-05T02:36:44.300Z,8.20
2018-11-05T02:39:11.239Z,8.50
2018-11-05T02:41:38.229Z,8.10
2018-11-05T02:44:05.212Z,7.57
2018-11-05T02:46:32.149Z,8.20
2018-11-05T02:48:59.108Z,7.90
2018-11-05T02:51:26.062Z,8.73
2018-11-05T02:53:53.007Z,8.27
2018-11-05T02:56:19.965Z,8.67
2018-11-05T02:58:46.913Z,8.33
2018-11-05T03:01:13.853Z,7.93
2018-11-05T03:03:40.824Z,8.33
2018-11-05T03:06:07.758Z,8.17
2018-11-05T03:08:34.704Z,8.57
2018-11-05T03:11:01.667Z,8.70
2018-11-05T03:13:28.612Z,8.53
2018-11-05T03:15:55.550Z,9.20
2018-11-05T03:18:22.520Z,7.83
2018-11-05T03:20:49.445Z,8.60
2018-11-05T03:23:16.382Z,8.20
2018-11-05T03:25:43.357Z,7.53
2018-11-05T03:28:10.322Z,8.00
2018-11-05T03:30:37.250Z,7.83
2018-11-05T03:33:04.382Z,7.80
2018-11-05T03:35:31.518Z,7.20
2018-11-05T03:37:58.421Z,7.43
2018-11-05T03:40:25.375Z,7.90
2018-11-05T03:42:52.319Z,8.43
2018-11-05T03:45:19.239Z,7.80
2018-11-05T03:47:46.182Z,8.00
2018-11-05T03:50:14.505Z,8.80
2018-11-05T03:52:42.066Z,9.10
2018-11-05T03:55:09.143Z,8.77
2018-11-05T03:57:36.161Z,8.53
2018-11-05T04:00:04.121Z,8.37
2018-11-05T04:02:31.081Z,7.77
2018-11-05T04:04:58.013Z,8.37
2018-11-05T04:07:24.953Z,7.70
2018-11-05T04:09:51.910Z,7.50
2018-11-05T04:12:18.849Z,8.53
2018-11-05T04:14:45.776Z,7.53
2018-11-05T04:17:12.735Z,7.53
2018-11-05T04:19:39.744Z,7.70
2018-11-05T04:22:06.695Z,7.93
2018-11-05T04:24:33.659Z,7.63
2018-11-05T04:27:00.617Z,7.77
2018-11-05T04:29:27.564Z,8.23
2018-11-05T04:31:54.533Z,7.40
2018-11-05T04:34:21.480Z,7.87
2018-11-05T04:36:48.725Z,7.77
2018-11-05T04:39:16.117Z,7.23
2018-11-05T04:41:43.055Z,7.40
2018-11-05T04:44:10.119Z,7.57
2018-11-05T04:46:37.688Z,7.23
2018-11-05T04:49:04.658Z,7.57
2018-11-05T04:51:31.730Z,7.90
2018-11-05T04:53:58.691Z,8.50
2018-11-05T04:56:25.674Z,7.90
2018-11-05T04:58:52.602Z,8.37
2018-11-05T05:01:19.591Z,7.97
2018-11-05T05:03:46.538Z,8.43
2018-11-05T05:06:13.477Z,8.07
2018-11-05T05:08:40.450Z,7.90
2018-11-05T05:11:07.380Z,8.00
2018-11-05T05:13:34.330Z,7.80
2018-11-05T05:16:01.409Z,8.10
2018-11-05T05:18:28.326Z,7.70
2018-11-05T05:20:55.282Z,8.10
2018-11-05T05:23:22.262Z,8.40
2018-11-05T05:25:49.206Z,7.43
2018-11-05T05:28:16.134Z,8.27
2018-11-05T05:30:43.073Z,8.70
2018-11-05T05:33:10.089Z,7.97
2018-11-05T05:35:36.962Z,7.67
2018-11-05T05:38:04.490Z,8.10
2018-11-05T05:40:31.647Z,7.80
2018-11-05T05:42:58.532Z,7.63
2018-11-05T05:45:25.478Z,8.20
2018-11-05T05:47:52.412Z,7.70
2018-11-05T05:50:19.439Z,7.80
2018-11-05T05:52:47.820Z,8.50
2018-11-05T05:55:14.883Z,7.90
2018-11-05T05:57:42.211Z,8.07
2018-11-05T06:00:11.423Z,7.67
2018-11-05T06:02:38.562Z,7.50
2018-11-05T06:05:06.320Z,7.60
2018-11-05T06:07:33.287Z,7.87
2018-11-05T06:10:00.221Z,7.80
2018-11-05T06:12:27.171Z,8.20
2018-11-05T06:14:54.122Z,8.37
2018-11-05T06:17:21.099Z,8.83
2018-11-05T06:19:48.041Z,8.53
2018-11-05T06:22:14.993Z,9.07
2018-11-05T06:24:41.938Z,9.63
2018-11-05T06:27:08.899Z,8.63
2018-11-05T06:29:35.935Z,8.40
2018-11-05T06:32:02.892Z,8.47
2018-11-05T06:34:29.848Z,8.63
2018-11-05T06:36:56.784Z,10.70
2018-11-05T06:39:24.169Z,10.10
2018-11-05T06:41:51.187Z,9.93
2018-11-05T06:44:18.134Z,14.17
2018-11-05T06:46:45.011Z,10.67
2018-11-05T06:49:11.962Z,10.27
2018-11-05T06:51:38.922Z,8.77
2018-11-05T06:54:05.874Z,8.77
2018-11-05T06:56:33.245Z,7.93
2018-11-05T06:59:00.195Z,7.60
2018-11-05T07:01:27.959Z,8.20
2018-11-05T07:03:54.923Z,8.70
2018-11-05T07:06:21.891Z,7.93
2018-11-05T07:08:48.827Z,8.90
2018-11-05T07:11:15.844Z,8.13
2018-11-05T07:13:42.767Z,8.10
2018-11-05T07:16:09.721Z,8.37
2018-11-05T07:18:36.711Z,8.70
2018-11-05T07:21:03.607Z,9.23
2018-11-05T07:23:30.692Z,10.00
2018-11-05T07:25:57.621Z,9.73
2018-11-05T07:28:24.632Z,9.27
2018-11-05T07:30:51.580Z,9.03
2018-11-05T07:33:18.577Z,8.90
2018-11-05T07:35:45.494Z,9.73
2018-11-05T07:38:12.450Z,8.70
2018-11-05T07:40:39.735Z,9.33
2018-11-05T07:43:06.692Z,9.13
2018-11-05T07:45:33.624Z,8.77
2018-11-05T07:48:00.562Z,9.30
2018-11-05T07:50:27.698Z,9.30
2018-11-05T07:52:54.515Z,8.80
2018-11-05T07:55:21.486Z,8.83
2018-11-05T07:57:49.415Z,8.93
2018-11-05T08:00:22.114Z,8.77
2018-11-05T08:02:50.981Z,9.37
2018-11-05T08:05:18.941Z,8.97
2018-11-05T08:07:46.401Z,8.83
2018-11-05T08:10:13.413Z,8.70
2018-11-05T08:12:41.118Z,8.17
2018-11-05T08:15:11.028Z,8.73
2018-11-05T08:17:37.990Z,8.70
2018-11-05T08:20:05.120Z,9.03
2018-11-05T08:22:32.077Z,8.77
2018-11-05T08:24:59.079Z,8.70
2018-11-05T08:27:26.032Z,8.70
2018-11-05T08:29:52.983Z,8.37
2018-11-05T08:32:19.929Z,8.43
2018-11-05T08:34:46.888Z,8.27
2018-11-05T08:37:14.175Z,8.53
2018-11-05T08:39:41.135Z,9.60
2018-11-05T08:42:08.342Z,8.90
2018-11-05T08:44:35.285Z,8.53
2018-11-05T08:47:02.233Z,7.73
2018-11-05T08:49:29.182Z,7.73
2018-11-05T08:51:56.331Z,6.93
2018-11-05T08:54:23.099Z,7.90
2018-11-05T08:56:50.057Z,7.73
2018-11-05T08:59:17.002Z,8.57
2018-11-05T09:01:43.984Z,7.87
2018-11-05T09:04:10.940Z,8.60
2018-11-05T09:06:37.897Z,9.23
2018-11-05T09:09:06.505Z,9.37
2018-11-05T09:11:33.835Z,9.60
2018-11-05T09:14:00.393Z,9.03
2018-11-05T09:16:27.370Z,9.97
2018-11-05T09:18:54.340Z,9.63
2018-11-05T09:21:21.411Z,10.07
2018-11-05T09:23:48.353Z,10.20
2018-11-05T09:26:15.296Z,9.40
2018-11-05T09:28:42.247Z,9.53
2018-11-05T09:31:09.230Z,10.53
2018-11-05T09:33:36.157Z,9.97
2018-11-05T09:36:03.152Z,9.73
2018-11-05T09:38:30.287Z,9.63
2018-11-05T09:40:57.237Z,9.27
2018-11-05T09:43:24.814Z,9.67
2018-11-05T09:45:51.786Z,10.13
2018-11-05T09:48:18.728Z,9.00
2018-11-05T09:50:45.689Z,10.00
2018-11-05T09:53:12.636Z,9.83
2018-11-05T09:55:39.623Z,9.40
2018-11-05T09:58:06.502Z,9.23
2018-11-05T10:00:33.449Z,8.57
2018-11-05T10:03:06.337Z,9.83
2018-11-05T10:05:33.261Z,11.07
2018-11-05T10:08:00.122Z,9.83
2018-11-05T10:10:27.095Z,9.37
2018-11-05T10:12:53.997Z,9.60
2018-11-05T10:15:20.954Z,9.93
2018-11-05T10:17:47.893Z,9.80
2018-11-05T10:20:16.722Z,9.70
2018-11-05T10:22:44.120Z,10.60
2018-11-05T10:25:11.867Z,10.30
2018-11-05T10:27:38.765Z,10.10
2018-11-05T10:30:08.803Z,9.33
2018-11-05T10:32:35.769Z,10.00
2018-11-05T10:35:02.717Z,10.47
2018-11-05T10:37:29.697Z,9.97
2018-11-05T10:39:56.648Z,9.83
2018-11-05T10:42:23.611Z,9.37
2018-11-05T10:44:50.969Z,9.97
2018-11-05T10:47:17.893Z,9.33
2018-11-05T10:49:44.831Z,9.60
2018-11-05T10:52:12.092Z,10.17
2018-11-05T10:54:38.754Z,9.87
2018-11-05T10:57:05.705Z,8.93
2018-11-05T10:59:32.695Z,8.90
2018-11-05T11:02:05.439Z,9.30
2018-11-05T11:04:33.900Z,8.77
2018-11-05T11:07:01.722Z,9.50
2018-11-05T11:09:28.710Z,8.73
2018-11-05T11:11:56.288Z,8.50
2018-11-05T11:14:23.245Z,8.20
2018-11-05T11:16:50.192Z,7.73
2018-11-05T11:19:17.150Z,7.17
2018-11-05T11:21:44.090Z,8.63
2018-11-05T11:24:11.051Z,7.50
2018-11-05T11:26:38.041Z,8.37
2018-11-05T11:29:05.094Z,7.77
2018-11-05T11:31:32.011Z,7.80
2018-11-05T11:33:58.979Z,8.30
2018-11-05T11:36:26.059Z,8.40
2018-11-05T11:38:52.942Z,8.53
2018-11-05T11:41:19.938Z,8.37
2018-11-05T11:43:46.874Z,8.37
2018-11-05T11:46:14.279Z,8.33
2018-11-05T11:48:41.248Z,8.87
2018-11-05T11:51:08.188Z,9.20
2018-11-05T11:53:35.240Z,8.20
2018-11-05T11:56:02.077Z,8.40
2018-11-05T11:58:29.027Z,8.53
2018-11-05T12:00:55.971Z,9.37
2018-11-05T12:03:22.974Z,8.53
2018-11-05T12:05:49.884Z,8.40
2018-11-05T12:08:16.830Z,8.37
2018-11-05T12:10:43.804Z,8.40
2018-11-05T12:13:10.742Z,8.97
2018-11-05T12:15:37.664Z,7.67
2018-11-05T12:18:04.665Z,9.20
2018-11-05T12:20:31.631Z,8.10
2018-11-05T12:22:58.573Z,8.73
2018-11-05T12:25:25.543Z,8.80
2018-11-05T12:27:52.501Z,8.73
2018-11-05T12:30:21.733Z,7.90
2018-11-05T12:32:49.522Z,8.27
2018-11-05T12:35:16.486Z,8.60
2018-11-05T12:37:44.724Z,7.20
2018-11-05T12:40:13.541Z,8.27
2018-11-05T12:42:40.671Z,9.10
2018-11-05T12:45:07.827Z,7.73
2018-11-05T12:47:34.950Z,8.63
2018-11-05T12:50:01.891Z,7.80
2018-11-05T12:52:28.821Z,7.00
2018-11-05T12:54:55.843Z,7.80
2018-11-05T12:57:22.785Z,7.70
2018-11-05T12:59:49.778Z,7.67
2018-11-05T13:02:16.741Z,8.13
2018-11-05T13:04:43.683Z,7.40
2018-11-05T13:07:10.636Z,7.70
2018-11-05T13:09:37.594Z,9.10
2018-11-05T13:12:04.522Z,8.37
2018-11-05T13:14:31.477Z,8.87
2018-11-05T13:16:58.447Z,8.57
2018-11-05T13:19:25.379Z,19.60
2018-11-05T13:21:52.319Z,12.20
2018-11-05T13:24:19.310Z,20.70
2018-11-05T13:26:46.258Z,8.60
2018-11-05T13:29:13.206Z,9.30
2018-11-05T13:31:40.154Z,13.17
2018-11-05T13:34:07.118Z,9.17
2018-11-05T13:36:34.189Z,8.67
2018-11-05T13:39:01.025Z,8.57
2018-11-05T13:41:27.982Z,8.63
2018-11-05T13:43:54.937Z,9.20
2018-11-05T13:46:22.362Z,10.33
2018-11-05T13:48:51.143Z,11.80
2018-11-05T13:51:17.360Z,15.83
2018-11-05T13:53:44.365Z,9.97
2018-11-05T13:56:11.299Z,9.37
2018-11-05T13:58:38.283Z,9.47
2018-11-05T14:01:05.211Z,9.57
2018-11-05T14:03:32.139Z,9.00
2018-11-05T14:05:59.076Z,9.83
2018-11-05T14:08:26.028Z,10.27
2018-11-05T14:10:53.061Z,8.70
2018-11-05T14:13:19.943Z,10.33
2018-11-05T14:15:46.910Z,9.60
2018-11-05T14:18:13.946Z,9.17
2018-11-05T14:20:40.831Z,9.17
2018-11-05T14:23:07.803Z,9.10
2018-11-05T14:25:34.782Z,9.50
2018-11-05T14:28:02.034Z,9.53
2018-11-05T14:30:28.650Z,9.30
2018-11-05T14:32:55.614Z,8.90
2018-11-05T14:35:22.566Z,9.67
2018-11-05T14:37:49.538Z,9.27
2018-11-05T14:40:17.434Z,9.73
2018-11-05T14:42:44.474Z,9.50
2018-11-05T14:45:13.189Z,9.23
2018-11-05T14:47:41.236Z,9.70
2018-11-05T14:50:10.735Z,8.37
2018-11-05T14:52:37.792Z,9.03
2018-11-05T14:55:06.486Z,9.70
2018-11-05T14:57:33.435Z,8.63
2018-11-05T15:00:00.436Z,8.97
2018-11-05T15:02:33.311Z,8.83
2018-11-05T15:05:00.253Z,9.53
2018-11-05T15:07:27.299Z,8.63
2018-11-05T15:09:54.217Z,8.97
2018-11-05T15:12:21.175Z,8.77
2018-11-05T15:14:48.141Z,9.03
2018-11-05T15:17:15.091Z,9.10
2018-11-05T15:19:42.541Z,9.00
2018-11-05T15:22:08.998Z,9.63
2018-11-05T15:24:35.970Z,9.83
2018-11-05T15:27:03.398Z,10.13
2018-11-05T15:29:30.294Z,10.33
2018-11-05T15:31:57.232Z,9.40
2018-11-05T15:34:24.169Z,9.60
2018-11-05T15:36:51.122Z,9.60
2018-11-05T15:39:18.097Z,10.20
2018-11-05T15:41:45.063Z,12.10
2018-11-05T15:44:12.030Z,11.57
2018-11-05T15:46:38.968Z,9.57
2018-11-05T15:49:05.910Z,9.57
2018-11-05T15:51:33.676Z,10.00
2018-11-05T15:54:00.569Z,9.50
2018-11-05T15:56:28.163Z,9.17
2018-11-05T15:58:55.147Z,9.47
2018-11-05T16:01:22.210Z,9.73
2018-11-05T16:03:49.245Z,9.00
2018-11-05T16:06:16.207Z,9.73
2018-11-05T16:08:43.155Z,10.33
2018-11-05T16:11:10.124Z,11.33
2018-11-05T16:13:37.098Z,10.77
2018-11-05T16:16:04.088Z,10.30
2018-11-05T16:18:31.038Z,10.60
2018-11-05T16:20:58.011Z,10.53
2018-11-05T16:23:24.975Z,11.60
2018-11-05T16:25:52.052Z,10.87
2018-11-05T16:28:18.921Z,11.37
2018-11-05T16:30:45.988Z,11.00
2018-11-05T16:33:12.865Z,11.53
2018-11-05T16:35:39.904Z,11.30
2018-11-05T16:38:06.814Z,11.70
2018-11-05T16:40:33.764Z,11.67
2018-11-05T16:43:00.713Z,11.47
2018-11-05T16:45:27.678Z,11.00
2018-11-05T16:47:54.673Z,10.97
2018-11-05T16:50:23.590Z,11.57
2018-11-05T16:52:51.139Z,11.80
2018-11-05T16:55:18.109Z,12.70
2018-11-05T16:57:45.098Z,12.27
2018-11-05T17:00:12.799Z,12.23
2018-11-05T17:02:39.980Z,12.90
2018-11-05T17:05:06.886Z,12.60
2018-11-05T17:07:33.813Z,12.43
2018-11-05T17:10:00.838Z,12.25
2018-11-05T17:12:27.811Z,11.90
2018-11-05T17:14:54.792Z,12.70
2018-11-05T17:17:21.737Z,11.90
2018-11-05T17:19:48.710Z,10.60
2018-11-05T17:22:15.675Z,12.13
2018-11-05T17:24:42.682Z,11.57
2018-11-05T17:27:09.664Z,11.70
2018-11-05T17:29:36.639Z,11.37
2018-11-05T17:32:03.914Z,11.67
2018-11-05T17:34:30.862Z,12.40
2018-11-05T17:36:57.799Z,11.50
2018-11-05T17:39:24.866Z,12.30
2018-11-05T17:41:51.919Z,12.93
2018-11-05T17:44:18.921Z,12.87
2018-11-05T17:46:45.873Z,12.20
2018-11-05T17:49:13.181Z,11.83
2018-11-05T17:51:40.624Z,11.40
2018-11-05T17:54:08.042Z,12.20
2018-11-05T17:56:34.997Z,12.13
2018-11-05T17:59:01.954Z,13.50
2018-11-05T18:01:28.894Z,13.43
2018-11-05T18:03:55.925Z,11.83
2018-11-05T18:06:25.112Z,10.60
2018-11-05T18:08:51.073Z,12.20
2018-11-05T18:11:18.496Z,10.87
2018-11-05T18:13:45.444Z,11.73
2018-11-05T18:16:12.395Z,14.97
2018-11-05T18:18:39.375Z,13.57
2018-11-05T18:21:06.326Z,12.50
2018-11-05T18:23:33.266Z,11.87
2018-11-05T18:26:00.264Z,12.23
2018-11-05T18:28:27.207Z,12.20
2018-11-05T18:30:54.205Z,14.00
2018-11-05T18:33:21.119Z,14.00
2018-11-05T18:35:48.058Z,11.90
2018-11-05T18:38:15.038Z,11.50
2018-11-05T18:40:41.998Z,11.37
2018-11-05T18:43:09.146Z,11.50
2018-11-05T18:45:35.963Z,12.10
2018-11-05T18:48:02.898Z,11.90
2018-11-05T18:50:29.854Z,11.03
2018-11-05T18:52:56.845Z,12.13
2018-11-05T18:55:24.169Z,13.17
2018-11-05T18:57:51.113Z,16.37
2018-11-05T19:00:22.964Z,11.80
2018-11-05T19:02:50.857Z,12.03
2018-11-05T19:05:18.380Z,11.40
2018-11-05T19:07:45.458Z,11.07
2018-11-05T19:10:12.478Z,11.20
2018-11-05T19:12:39.456Z,11.17
2018-11-05T19:15:07.805Z,11.37
2018-11-05T19:17:34.790Z,10.63
2018-11-05T19:20:01.736Z,11.00
2018-11-05T19:22:28.700Z,11.10
2018-11-05T19:24:55.654Z,12.43
2018-11-05T19:27:22.609Z,12.90
2018-11-05T19:29:49.553Z,12.40
2018-11-05T19:32:16.498Z,12.30
2018-11-05T19:34:43.443Z,12.20
2018-11-05T19:37:10.388Z,11.57
2018-11-05T19:39:37.382Z,12.40
2018-11-05T19:42:04.538Z,12.50
2018-11-05T19:44:31.434Z,12.50
2018-11-05T19:46:58.421Z,13.30
2018-11-05T19:49:25.388Z,12.70
2018-11-05T19:51:52.330Z,12.30
2018-11-05T19:54:19.309Z,13.13
2018-11-05T19:56:46.605Z,13.80
2018-11-05T19:59:13.537Z,14.00
2018-11-05T20:01:40.501Z,13.33
2018-11-05T20:04:07.496Z,12.27
2018-11-05T20:06:34.433Z,13.33
2018-11-05T20:09:01.407Z,12.60
2018-11-05T20:11:28.346Z,19.17
2018-11-05T20:13:55.311Z,16.67
2018-11-05T20:16:22.282Z,12.70
2018-11-05T20:18:49.298Z,12.13
2018-11-05T20:21:16.610Z,13.10
2018-11-05T20:23:43.568Z,11.50
2018-11-05T20:26:10.534Z,12.20
2018-11-05T20:28:37.552Z,12.13
2018-11-05T20:31:04.972Z,12.57
2018-11-05T20:33:31.903Z,12.17
2018-11-05T20:35:58.808Z,12.27
2018-11-05T20:38:25.810Z,12.93
2018-11-05T20:40:52.907Z,12.37
2018-11-05T20:43:19.849Z,11.90
2018-11-05T20:45:46.815Z,12.50
2018-11-05T20:48:13.827Z,12.03
2018-11-05T20:50:40.888Z,12.57
2018-11-05T20:53:07.854Z,12.37
2018-11-05T20:55:34.793Z,13.23
2018-11-05T20:58:01.959Z,12.33
2018-11-05T21:00:28.955Z,12.00
2018-11-05T21:02:55.909Z,12.87
2018-11-05T21:05:22.849Z,15.33
2018-11-05T21:07:49.806Z,14.67
2018-11-05T21:10:16.767Z,14.13
2018-11-05T21:12:44.147Z,14.03
2018-11-05T21:15:15.270Z,13.70
2018-11-05T21:17:43.104Z,14.07
2018-11-05T21:20:10.118Z,13.63
2018-11-05T21:22:37.133Z,13.50
2018-11-05T21:25:04.907Z,13.70
2018-11-05T21:27:31.853Z,13.73
2018-11-05T21:29:58.797Z,13.23
2018-11-05T21:32:25.761Z,13.10
2018-11-05T21:34:52.835Z,15.67
2018-11-05T21:37:19.787Z,14.67
2018-11-05T21:39:46.765Z,13.37
2018-11-05T21:42:13.743Z,12.60
2018-11-05T21:44:40.774Z,12.13
2018-11-05T21:47:07.757Z,11.70
2018-11-05T21:49:34.792Z,11.77
2018-11-05T21:52:01.836Z,11.40
2018-11-05T21:54:28.869Z,11.03
2018-11-05T21:56:55.759Z,11.50
2018-11-05T21:59:23.091Z,10.93
2018-11-05T22:01:50.037Z,11.40
2018-11-05T22:04:16.998Z,11.13
2018-11-05T22:06:43.966Z,12.10
2018-11-05T22:09:10.935Z,10.97
2018-11-05T22:11:37.873Z,11.47
2018-11-05T22:14:04.880Z,10.50
2018-11-05T22:16:31.823Z,10.93
2018-11-05T22:18:58.790Z,12.00
2018-11-05T22:21:25.760Z,11.20
2018-11-05T22:23:52.710Z,12.03
2018-11-05T22:26:19.706Z,11.10
2018-11-05T22:28:46.685Z,11.40
2018-11-05T22:31:13.625Z,12.07
2018-11-05T22:33:40.591Z,11.67
2018-11-05T22:36:07.650Z,12.27
2018-11-05T22:38:34.706Z,11.30
2018-11-05T22:41:01.684Z,10.93
2018-11-05T22:43:28.671Z,10.80
2018-11-05T22:45:55.646Z,11.73
2018-11-05T22:48:23.058Z,12.47
2018-11-05T22:50:50.061Z,11.87
2018-11-05T22:53:17.058Z,26.03
2018-11-05T22:55:44.067Z,12.03
2018-11-05T22:58:11.056Z,13.62
2018-11-05T23:00:46.248Z,12.33
2018-11-05T23:03:19.155Z,11.63
2018-11-05T23:05:46.258Z,11.40
2018-11-05T23:08:13.311Z,11.40
2018-11-05T23:10:40.351Z,11.30
2018-11-05T23:13:07.326Z,11.30
2018-11-05T23:15:34.305Z,11.37
2018-11-05T23:18:01.318Z,11.13
2018-11-05T23:20:28.235Z,11.53
2018-11-05T23:22:55.239Z,11.90
2018-11-05T23:25:22.264Z,11.47
2018-11-05T23:27:49.191Z,11.90
2018-11-05T23:30:16.187Z,11.50
2018-11-05T23:32:43.262Z,10.97
2018-11-05T23:35:10.859Z,10.50
2018-11-05T23:37:38.939Z,11.20
2018-11-05T23:40:06.514Z,11.47
2018-11-05T23:42:33.532Z,11.03
2018-11-05T23:45:00.550Z,10.10
2018-11-05T23:47:28.373Z,11.33
2018-11-05T23:49:55.729Z,11.03
2018-11-05T23:52:23.256Z,11.90
2018-11-05T23:54:50.231Z,10.83
2018-11-05T23:57:17.165Z,11.43
2018-11-05T23:59:44.098Z,11.63
